sensor_id;sensor_type;location;lat;lon;timestamp;temperature;humidity
66568;DHT22;53422;49.296;6.900;2023-03-20T00:01:20;9.40;99.90
66568;DHT22;53422;49.296;6.900;2023-03-20T00:03:47;9.40;99.90
66568;DHT22;53422;49.296;6.900;2023-03-20T00:06:17;9.40;99.90
66568;DHT22;53422;49.296;6.900;2023-03-20T00:08:44;9.40;99.90
66568;DHT22;53422;49.296;6.900;2023-03-20T00:11:31;9.30;99.90
66568;DHT22;53422;49.296;6.900;2023-03-20T00:14:18;9.40;99.90
66568;DHT22;53422;49.296;6.900;2023-03-20T00:16:46;9.30;99.90
66568;DHT22;53422;49.296;6.900;2023-03-20T00:19:15;9.30;99.90
66568;DHT22;53422;49.296;6.900;2023-03-20T00:21:42;9.40;99.90
66568;DHT22;53422;49.296;6.900;2023-03-20T00:24:08;9.40;99.90
66568;DHT22;53422;49.296;6.900;2023-03-20T00:26:35;9.40;99.90
66568;DHT22;53422;49.296;6.900;2023-03-20T00:29:01;9.40;99.90
66568;DHT22;53422;49.296;6.900;2023-03-20T00:31:31;9.30;99.90
66568;DHT22;53422;49.296;6.900;2023-03-20T00:34:02;9.40;99.90
66568;DHT22;53422;49.296;6.900;2023-03-20T00:36:28;9.40;99.90
66568;DHT22;53422;49.296;6.900;2023-03-20T00:38:55;9.30;99.90
66568;DHT22;53422;49.296;6.900;2023-03-20T00:41:33;9.40;99.90
66568;DHT22;53422;49.296;6.900;2023-03-20T00:44:36;9.40;99.90
66568;DHT22;53422;49.296;6.900;2023-03-20T00:47:09;9.30;99.90
66568;DHT22;53422;49.296;6.900;2023-03-20T00:49:35;9.30;99.90
66568;DHT22;53422;49.296;6.900;2023-03-20T00:52:03;9.30;99.90
66568;DHT22;53422;49.296;6.900;2023-03-20T00:54:30;9.30;99.90
66568;DHT22;53422;49.296;6.900;2023-03-20T00:57:02;9.30;99.90
66568;DHT22;53422;49.296;6.900;2023-03-20T00:59:31;9.40;99.90
66568;DHT22;53422;49.296;6.900;2023-03-20T01:01:59;9.30;99.90
66568;DHT22;53422;49.296;6.900;2023-03-20T01:04:30;9.30;99.90
66568;DHT22;53422;49.296;6.900;2023-03-20T01:06:58;9.30;99.90
66568;DHT22;53422;49.296;6.900;2023-03-20T01:09:24;9.40;99.90
66568;DHT22;53422;49.296;6.900;2023-03-20T01:11:50;9.30;99.90
66568;DHT22;53422;49.296;6.900;2023-03-20T01:14:15;9.30;99.90
66568;DHT22;53422;49.296;6.900;2023-03-20T01:16:42;9.30;99.90
66568;DHT22;53422;49.296;6.900;2023-03-20T01:19:12;9.30;99.90
66568;DHT22;53422;49.296;6.900;2023-03-20T01:21:39;9.30;99.90
66568;DHT22;53422;49.296;6.900;2023-03-20T01:24:04;9.30;99.90
66568;DHT22;53422;49.296;6.900;2023-03-20T01:26:39;9.30;99.90
66568;DHT22;53422;49.296;6.900;2023-03-20T01:29:20;9.30;99.90
66568;DHT22;53422;49.296;6.900;2023-03-20T01:31:47;9.30;99.90
66568;DHT22;53422;49.296;6.900;2023-03-20T01:34:13;9.30;99.90
66568;DHT22;53422;49.296;6.900;2023-03-20T01:36:46;9.30;99.90
66568;DHT22;53422;49.296;6.900;2023-03-20T01:39:13;9.30;99.90
66568;DHT22;53422;49.296;6.900;2023-03-20T01:41:38;9.30;99.90
66568;DHT22;53422;49.296;6.900;2023-03-20T01:44:21;9.30;99.90
66568;DHT22;53422;49.296;6.900;2023-03-20T01:46:49;9.30;99.90
66568;DHT22;53422;49.296;6.900;2023-03-20T01:51:46;9.30;99.90
66568;DHT22;53422;49.296;6.900;2023-03-20T01:54:36;9.30;99.90
66568;DHT22;53422;49.296;6.900;2023-03-20T01:57:11;9.30;99.90
66568;DHT22;53422;49.296;6.900;2023-03-20T01:59:48;9.30;99.90
66568;DHT22;53422;49.296;6.900;2023-03-20T02:02:18;9.30;99.90
66568;DHT22;53422;49.296;6.900;2023-03-20T02:04:46;9.30;99.90
66568;DHT22;53422;49.296;6.900;2023-03-20T02:07:17;9.30;99.90
66568;DHT22;53422;49.296;6.900;2023-03-20T02:09:43;9.30;99.90
66568;DHT22;53422;49.296;6.900;2023-03-20T02:12:10;9.30;99.90
66568;DHT22;53422;49.296;6.900;2023-03-20T02:14:36;9.30;99.90
66568;DHT22;53422;49.296;6.900;2023-03-20T02:17:05;9.30;99.90
66568;DHT22;53422;49.296;6.900;2023-03-20T02:22:30;9.30;99.90
66568;DHT22;53422;49.296;6.900;2023-03-20T02:36:10;9.30;99.90
66568;DHT22;53422;49.296;6.900;2023-03-20T02:41:34;9.20;99.90
66568;DHT22;53422;49.296;6.900;2023-03-20T02:44:28;9.30;99.90
66568;DHT22;53422;49.296;6.900;2023-03-20T02:47:10;9.20;99.90
66568;DHT22;53422;49.296;6.900;2023-03-20T02:52:32;9.20;99.90
66568;DHT22;53422;49.296;6.900;2023-03-20T03:00:40;9.20;99.90
66568;DHT22;53422;49.296;6.900;2023-03-20T03:03:25;9.20;99.90
66568;DHT22;53422;49.296;6.900;2023-03-20T03:05:58;9.20;99.90
66568;DHT22;53422;49.296;6.900;2023-03-20T03:08:31;9.20;99.90
66568;DHT22;53422;49.296;6.900;2023-03-20T03:11:02;9.30;99.90
66568;DHT22;53422;49.296;6.900;2023-03-20T03:13:32;9.20;99.90
66568;DHT22;53422;49.296;6.900;2023-03-20T03:16:02;9.20;99.90
66568;DHT22;53422;49.296;6.900;2023-03-20T03:18:31;9.20;99.90
66568;DHT22;53422;49.296;6.900;2023-03-20T03:20:59;9.20;99.90
66568;DHT22;53422;49.296;6.900;2023-03-20T03:23:45;9.20;99.90
66568;DHT22;53422;49.296;6.900;2023-03-20T03:26:17;9.20;99.90
66568;DHT22;53422;49.296;6.900;2023-03-20T03:28:46;9.20;99.90
66568;DHT22;53422;49.296;6.900;2023-03-20T03:31:15;9.20;99.90
66568;DHT22;53422;49.296;6.900;2023-03-20T03:33:45;9.20;99.90
66568;DHT22;53422;49.296;6.900;2023-03-20T03:42:23;9.20;99.90
66568;DHT22;53422;49.296;6.900;2023-03-20T03:44:36;9.20;99.90
66568;DHT22;53422;49.296;6.900;2023-03-20T03:47:14;9.20;99.90
66568;DHT22;53422;49.296;6.900;2023-03-20T03:49:52;9.20;99.90
66568;DHT22;53422;49.296;6.900;2023-03-20T03:52:22;9.20;99.90
66568;DHT22;53422;49.296;6.900;2023-03-20T03:54:53;9.20;99.90
66568;DHT22;53422;49.296;6.900;2023-03-20T03:57:33;9.20;99.90
66568;DHT22;53422;49.296;6.900;2023-03-20T04:00:02;9.20;99.90
66568;DHT22;53422;49.296;6.900;2023-03-20T04:02:31;9.20;99.90
66568;DHT22;53422;49.296;6.900;2023-03-20T04:04:58;9.20;99.90
66568;DHT22;53422;49.296;6.900;2023-03-20T04:07:27;9.20;99.90
66568;DHT22;53422;49.296;6.900;2023-03-20T04:09:53;9.20;99.90
66568;DHT22;53422;49.296;6.900;2023-03-20T04:12:32;9.20;99.90
66568;DHT22;53422;49.296;6.900;2023-03-20T04:14:59;9.20;99.90
66568;DHT22;53422;49.296;6.900;2023-03-20T04:17:24;9.20;99.90
66568;DHT22;53422;49.296;6.900;2023-03-20T04:19:50;9.20;99.90
66568;DHT22;53422;49.296;6.900;2023-03-20T04:22:15;9.20;99.90
66568;DHT22;53422;49.296;6.900;2023-03-20T04:24:41;9.20;99.90
66568;DHT22;53422;49.296;6.900;2023-03-20T04:27:07;9.20;99.90
66568;DHT22;53422;49.296;6.900;2023-03-20T04:29:32;9.20;99.90
66568;DHT22;53422;49.296;6.900;2023-03-20T04:31:58;9.10;99.90
66568;DHT22;53422;49.296;6.900;2023-03-20T04:34:24;9.20;99.90
66568;DHT22;53422;49.296;6.900;2023-03-20T04:36:50;9.20;99.90
66568;DHT22;53422;49.296;6.900;2023-03-20T04:39:15;9.20;99.90
66568;DHT22;53422;49.296;6.900;2023-03-20T04:41:41;9.10;99.90
66568;DHT22;53422;49.296;6.900;2023-03-20T04:44:07;9.10;99.90
66568;DHT22;53422;49.296;6.900;2023-03-20T04:46:32;9.10;99.90
66568;DHT22;53422;49.296;6.900;2023-03-20T04:48:58;9.20;99.90
66568;DHT22;53422;49.296;6.900;2023-03-20T04:51:23;9.20;99.90
66568;DHT22;53422;49.296;6.900;2023-03-20T04:53:49;9.10;99.90
66568;DHT22;53422;49.296;6.900;2023-03-20T04:56:15;9.10;99.90
66568;DHT22;53422;49.296;6.900;2023-03-20T04:58:41;9.10;99.90
66568;DHT22;53422;49.296;6.900;2023-03-20T05:01:06;9.10;99.90
66568;DHT22;53422;49.296;6.900;2023-03-20T05:03:32;9.10;99.90
66568;DHT22;53422;49.296;6.900;2023-03-20T05:05:58;9.10;99.90
66568;DHT22;53422;49.296;6.900;2023-03-20T05:08:24;9.10;99.90
66568;DHT22;53422;49.296;6.900;2023-03-20T05:10:50;9.10;99.90
66568;DHT22;53422;49.296;6.900;2023-03-20T05:13:16;9.10;99.90
66568;DHT22;53422;49.296;6.900;2023-03-20T05:15:42;9.10;99.90
66568;DHT22;53422;49.296;6.900;2023-03-20T05:18:08;9.10;99.90
66568;DHT22;53422;49.296;6.900;2023-03-20T05:20:34;9.10;99.90
66568;DHT22;53422;49.296;6.900;2023-03-20T05:23:01;9.00;99.90
66568;DHT22;53422;49.296;6.900;2023-03-20T05:25:26;9.00;99.90
66568;DHT22;53422;49.296;6.900;2023-03-20T05:27:52;9.00;99.90
66568;DHT22;53422;49.296;6.900;2023-03-20T05:30:18;9.00;99.90
66568;DHT22;53422;49.296;6.900;2023-03-20T05:32:44;9.00;99.90
66568;DHT22;53422;49.296;6.900;2023-03-20T05:35:10;9.00;99.90
66568;DHT22;53422;49.296;6.900;2023-03-20T05:37:37;9.00;99.90
66568;DHT22;53422;49.296;6.900;2023-03-20T05:40:04;9.00;99.90
66568;DHT22;53422;49.296;6.900;2023-03-20T05:42:30;9.00;99.90
66568;DHT22;53422;49.296;6.900;2023-03-20T05:44:55;9.00;99.90
66568;DHT22;53422;49.296;6.900;2023-03-20T05:47:21;9.00;99.90
66568;DHT22;53422;49.296;6.900;2023-03-20T05:49:47;9.00;99.90
66568;DHT22;53422;49.296;6.900;2023-03-20T05:52:12;9.00;99.90
66568;DHT22;53422;49.296;6.900;2023-03-20T05:54:38;9.00;99.90
66568;DHT22;53422;49.296;6.900;2023-03-20T05:57:03;8.90;99.90
66568;DHT22;53422;49.296;6.900;2023-03-20T05:59:29;9.00;99.90
66568;DHT22;53422;49.296;6.900;2023-03-20T06:01:54;9.00;99.90
66568;DHT22;53422;49.296;6.900;2023-03-20T06:04:20;9.00;99.90
66568;DHT22;53422;49.296;6.900;2023-03-20T06:06:46;8.90;99.90
66568;DHT22;53422;49.296;6.900;2023-03-20T06:09:11;8.90;99.90
66568;DHT22;53422;49.296;6.900;2023-03-20T06:11:37;9.00;99.90
66568;DHT22;53422;49.296;6.900;2023-03-20T06:14:02;9.00;99.90
66568;DHT22;53422;49.296;6.900;2023-03-20T06:16:28;8.90;99.90
66568;DHT22;53422;49.296;6.900;2023-03-20T06:18:53;8.90;99.90
66568;DHT22;53422;49.296;6.900;2023-03-20T06:21:19;8.90;99.90
66568;DHT22;53422;49.296;6.900;2023-03-20T06:23:45;8.90;99.90
66568;DHT22;53422;49.296;6.900;2023-03-20T06:26:10;8.90;99.90
66568;DHT22;53422;49.296;6.900;2023-03-20T06:28:36;8.90;99.90
66568;DHT22;53422;49.296;6.900;2023-03-20T06:31:02;8.90;99.90
66568;DHT22;53422;49.296;6.900;2023-03-20T06:33:27;8.80;99.90
66568;DHT22;53422;49.296;6.900;2023-03-20T06:35:53;8.80;99.90
66568;DHT22;53422;49.296;6.900;2023-03-20T06:38:19;8.80;99.90
66568;DHT22;53422;49.296;6.900;2023-03-20T06:40:45;8.80;99.90
66568;DHT22;53422;49.296;6.900;2023-03-20T06:43:10;8.80;99.90
66568;DHT22;53422;49.296;6.900;2023-03-20T06:45:37;8.80;99.90
66568;DHT22;53422;49.296;6.900;2023-03-20T06:48:11;8.80;99.90
66568;DHT22;53422;49.296;6.900;2023-03-20T06:50:37;8.80;99.90
66568;DHT22;53422;49.296;6.900;2023-03-20T06:53:03;8.80;99.90
66568;DHT22;53422;49.296;6.900;2023-03-20T06:55:28;8.90;99.90
66568;DHT22;53422;49.296;6.900;2023-03-20T06:57:54;8.90;99.90
66568;DHT22;53422;49.296;6.900;2023-03-20T07:00:20;8.90;99.90
66568;DHT22;53422;49.296;6.900;2023-03-20T07:02:46;8.90;99.90
66568;DHT22;53422;49.296;6.900;2023-03-20T07:05:14;8.90;99.90
66568;DHT22;53422;49.296;6.900;2023-03-20T07:07:40;8.90;99.90
66568;DHT22;53422;49.296;6.900;2023-03-20T07:10:06;8.90;99.90
66568;DHT22;53422;49.296;6.900;2023-03-20T07:12:32;8.90;99.90
66568;DHT22;53422;49.296;6.900;2023-03-20T07:14:57;9.00;99.90
66568;DHT22;53422;49.296;6.900;2023-03-20T07:17:23;9.00;99.90
66568;DHT22;53422;49.296;6.900;2023-03-20T07:19:48;9.00;99.90
66568;DHT22;53422;49.296;6.900;2023-03-20T07:22:21;9.00;99.90
66568;DHT22;53422;49.296;6.900;2023-03-20T07:24:47;9.00;99.90
66568;DHT22;53422;49.296;6.900;2023-03-20T07:27:12;9.00;99.90
66568;DHT22;53422;49.296;6.900;2023-03-20T07:29:38;9.00;99.90
66568;DHT22;53422;49.296;6.900;2023-03-20T07:32:04;9.10;99.90
66568;DHT22;53422;49.296;6.900;2023-03-20T07:34:29;9.10;99.90
66568;DHT22;53422;49.296;6.900;2023-03-20T07:36:55;9.10;99.90
66568;DHT22;53422;49.296;6.900;2023-03-20T07:39:21;9.10;99.90
66568;DHT22;53422;49.296;6.900;2023-03-20T07:41:46;9.10;99.90
66568;DHT22;53422;49.296;6.900;2023-03-20T07:44:12;9.20;99.90
66568;DHT22;53422;49.296;6.900;2023-03-20T07:46:39;9.20;99.90
66568;DHT22;53422;49.296;6.900;2023-03-20T07:49:05;9.20;99.90
66568;DHT22;53422;49.296;6.900;2023-03-20T07:51:31;9.20;99.90
66568;DHT22;53422;49.296;6.900;2023-03-20T07:53:57;9.20;99.90
66568;DHT22;53422;49.296;6.900;2023-03-20T07:56:23;9.20;99.90
66568;DHT22;53422;49.296;6.900;2023-03-20T07:58:48;9.20;99.90
66568;DHT22;53422;49.296;6.900;2023-03-20T08:01:14;9.30;99.90
66568;DHT22;53422;49.296;6.900;2023-03-20T08:03:40;9.20;99.90
66568;DHT22;53422;49.296;6.900;2023-03-20T08:06:06;9.30;99.90
66568;DHT22;53422;49.296;6.900;2023-03-20T08:08:34;9.30;99.90
66568;DHT22;53422;49.296;6.900;2023-03-20T08:11:00;9.30;99.90
66568;DHT22;53422;49.296;6.900;2023-03-20T08:13:26;9.40;99.90
66568;DHT22;53422;49.296;6.900;2023-03-20T08:15:52;9.40;99.90
66568;DHT22;53422;49.296;6.900;2023-03-20T08:18:18;9.40;99.90
66568;DHT22;53422;49.296;6.900;2023-03-20T08:20:46;9.50;99.90
66568;DHT22;53422;49.296;6.900;2023-03-20T08:23:12;9.50;99.90
66568;DHT22;53422;49.296;6.900;2023-03-20T08:25:38;9.50;99.90
66568;DHT22;53422;49.296;6.900;2023-03-20T08:28:03;9.60;99.90
66568;DHT22;53422;49.296;6.900;2023-03-20T08:30:29;9.60;99.90
66568;DHT22;53422;49.296;6.900;2023-03-20T08:32:55;9.70;99.90
66568;DHT22;53422;49.296;6.900;2023-03-20T08:35:22;9.70;99.90
66568;DHT22;53422;49.296;6.900;2023-03-20T08:37:48;9.80;99.90
66568;DHT22;53422;49.296;6.900;2023-03-20T08:40:13;9.70;99.90
66568;DHT22;53422;49.296;6.900;2023-03-20T08:42:39;9.80;99.90
66568;DHT22;53422;49.296;6.900;2023-03-20T08:45:05;9.80;99.90
66568;DHT22;53422;49.296;6.900;2023-03-20T08:47:31;9.80;99.90
66568;DHT22;53422;49.296;6.900;2023-03-20T08:49:57;9.80;99.90
66568;DHT22;53422;49.296;6.900;2023-03-20T08:52:23;9.80;99.90
66568;DHT22;53422;49.296;6.900;2023-03-20T08:54:48;9.90;99.90
66568;DHT22;53422;49.296;6.900;2023-03-20T08:57:14;10.00;99.90
66568;DHT22;53422;49.296;6.900;2023-03-20T08:59:39;10.00;99.90
66568;DHT22;53422;49.296;6.900;2023-03-20T09:02:05;10.00;99.90
66568;DHT22;53422;49.296;6.900;2023-03-20T09:04:31;10.00;99.90
66568;DHT22;53422;49.296;6.900;2023-03-20T09:06:57;10.00;99.90
66568;DHT22;53422;49.296;6.900;2023-03-20T09:09:22;10.00;99.90
66568;DHT22;53422;49.296;6.900;2023-03-20T09:11:54;10.00;99.90
66568;DHT22;53422;49.296;6.900;2023-03-20T09:14:21;10.10;99.90
66568;DHT22;53422;49.296;6.900;2023-03-20T09:16:47;10.10;99.90
66568;DHT22;53422;49.296;6.900;2023-03-20T09:19:13;10.20;99.90
66568;DHT22;53422;49.296;6.900;2023-03-20T09:21:39;10.20;99.90
66568;DHT22;53422;49.296;6.900;2023-03-20T09:24:05;10.30;99.90
66568;DHT22;53422;49.296;6.900;2023-03-20T09:26:30;10.30;99.90
66568;DHT22;53422;49.296;6.900;2023-03-20T09:28:56;10.40;99.90
66568;DHT22;53422;49.296;6.900;2023-03-20T09:31:22;10.60;99.90
66568;DHT22;53422;49.296;6.900;2023-03-20T09:33:47;10.60;99.90
66568;DHT22;53422;49.296;6.900;2023-03-20T09:36:13;10.60;99.90
66568;DHT22;53422;49.296;6.900;2023-03-20T09:38:40;10.60;99.90
66568;DHT22;53422;49.296;6.900;2023-03-20T09:41:19;10.70;99.90
66568;DHT22;53422;49.296;6.900;2023-03-20T09:49:16;10.90;99.90
66568;DHT22;53422;49.296;6.900;2023-03-20T09:51:57;10.90;99.90
66568;DHT22;53422;49.296;6.900;2023-03-20T09:54:32;10.90;99.90
66568;DHT22;53422;49.296;6.900;2023-03-20T09:57:00;11.00;99.90
66568;DHT22;53422;49.296;6.900;2023-03-20T09:59:28;11.10;99.90
66568;DHT22;53422;49.296;6.900;2023-03-20T10:02:13;11.20;99.90
66568;DHT22;53422;49.296;6.900;2023-03-20T10:04:41;11.30;99.90
66568;DHT22;53422;49.296;6.900;2023-03-20T10:07:10;11.30;99.90
66568;DHT22;53422;49.296;6.900;2023-03-20T10:09:38;11.30;99.90
66568;DHT22;53422;49.296;6.900;2023-03-20T10:15:12;11.40;99.90
66568;DHT22;53422;49.296;6.900;2023-03-20T10:20:34;11.50;99.90
66568;DHT22;53422;49.296;6.900;2023-03-20T10:23:07;11.50;99.90
66568;DHT22;53422;49.296;6.900;2023-03-20T10:25:44;11.50;99.90
66568;DHT22;53422;49.296;6.900;2023-03-20T10:28:13;11.60;99.90
66568;DHT22;53422;49.296;6.900;2023-03-20T10:39:05;11.60;99.90
66568;DHT22;53422;49.296;6.900;2023-03-20T10:41:38;11.60;99.90
66568;DHT22;53422;49.296;6.900;2023-03-20T10:44:09;11.70;99.90
66568;DHT22;53422;49.296;6.900;2023-03-20T10:46:44;11.70;99.90
66568;DHT22;53422;49.296;6.900;2023-03-20T10:49:18;11.80;99.90
66568;DHT22;53422;49.296;6.900;2023-03-20T10:51:55;11.90;99.90
66568;DHT22;53422;49.296;6.900;2023-03-20T10:54:35;11.90;99.90
66568;DHT22;53422;49.296;6.900;2023-03-20T10:57:03;11.90;99.90
66568;DHT22;53422;49.296;6.900;2023-03-20T10:59:45;11.90;99.90
66568;DHT22;53422;49.296;6.900;2023-03-20T11:02:17;12.00;99.90
66568;DHT22;53422;49.296;6.900;2023-03-20T11:04:43;12.00;99.90
66568;DHT22;53422;49.296;6.900;2023-03-20T11:07:31;12.00;99.90
66568;DHT22;53422;49.296;6.900;2023-03-20T11:10:15;12.10;99.90
66568;DHT22;53422;49.296;6.900;2023-03-20T11:12:46;12.10;99.90
66568;DHT22;53422;49.296;6.900;2023-03-20T11:15:27;12.10;99.90
66568;DHT22;53422;49.296;6.900;2023-03-20T11:18:00;12.00;99.90
66568;DHT22;53422;49.296;6.900;2023-03-20T11:20:34;12.10;99.90
66568;DHT22;53422;49.296;6.900;2023-03-20T11:23:05;12.10;99.90
66568;DHT22;53422;49.296;6.900;2023-03-20T11:25:36;12.10;99.90
66568;DHT22;53422;49.296;6.900;2023-03-20T11:30:59;12.10;99.90
66568;DHT22;53422;49.296;6.900;2023-03-20T11:33:27;12.20;99.90
66568;DHT22;53422;49.296;6.900;2023-03-20T11:35:55;12.20;99.90
66568;DHT22;53422;49.296;6.900;2023-03-20T11:38:22;12.20;99.90
66568;DHT22;53422;49.296;6.900;2023-03-20T11:40:49;12.20;99.90
66568;DHT22;53422;49.296;6.900;2023-03-20T11:43:20;12.30;99.90
66568;DHT22;53422;49.296;6.900;2023-03-20T11:45:54;12.30;99.90
66568;DHT22;53422;49.296;6.900;2023-03-20T11:48:25;12.40;99.90
66568;DHT22;53422;49.296;6.900;2023-03-20T11:51:04;12.40;99.90
66568;DHT22;53422;49.296;6.900;2023-03-20T11:53:37;12.40;99.90
66568;DHT22;53422;49.296;6.900;2023-03-20T12:01:21;12.50;99.90
66568;DHT22;53422;49.296;6.900;2023-03-20T12:06:24;12.40;99.90
66568;DHT22;53422;49.296;6.900;2023-03-20T12:08:55;12.50;99.90
66568;DHT22;53422;49.296;6.900;2023-03-20T12:11:34;12.50;99.90
66568;DHT22;53422;49.296;6.900;2023-03-20T12:14:02;12.40;99.90
66568;DHT22;53422;49.296;6.900;2023-03-20T12:16:29;12.40;99.90
66568;DHT22;53422;49.296;6.900;2023-03-20T12:18:59;12.50;99.90
66568;DHT22;53422;49.296;6.900;2023-03-20T12:21:45;12.50;99.90
66568;DHT22;53422;49.296;6.900;2023-03-20T12:24:22;12.50;99.90
66568;DHT22;53422;49.296;6.900;2023-03-20T12:27:05;12.50;99.90
66568;DHT22;53422;49.296;6.900;2023-03-20T12:32:14;12.50;99.90
66568;DHT22;53422;49.296;6.900;2023-03-20T12:34:44;12.40;99.90
66568;DHT22;53422;49.296;6.900;2023-03-20T12:37:11;12.40;99.90
66568;DHT22;53422;49.296;6.900;2023-03-20T12:39:45;12.40;99.90
66568;DHT22;53422;49.296;6.900;2023-03-20T12:42:34;12.50;99.90
66568;DHT22;53422;49.296;6.900;2023-03-20T12:50:19;12.50;99.90
66568;DHT22;53422;49.296;6.900;2023-03-20T12:58:43;12.50;99.00
66568;DHT22;53422;49.296;6.900;2023-03-20T13:04:20;12.40;99.90
66568;DHT22;53422;49.296;6.900;2023-03-20T13:06:54;12.40;99.90
66568;DHT22;53422;49.296;6.900;2023-03-20T13:18:10;12.40;99.90
66568;DHT22;53422;49.296;6.900;2023-03-20T13:20:49;12.40;98.30
66568;DHT22;53422;49.296;6.900;2023-03-20T13:23:38;12.40;99.90
66568;DHT22;53422;49.296;6.900;2023-03-20T13:26:14;12.40;99.90
66568;DHT22;53422;49.296;6.900;2023-03-20T13:28:51;12.40;99.90
66568;DHT22;53422;49.296;6.900;2023-03-20T13:31:26;12.30;95.40
66568;DHT22;53422;49.296;6.900;2023-03-20T13:39:23;12.40;99.50
66568;DHT22;53422;49.296;6.900;2023-03-20T13:41:52;12.40;99.90
66568;DHT22;53422;49.296;6.900;2023-03-20T13:44:22;12.40;99.90
66568;DHT22;53422;49.296;6.900;2023-03-20T13:46:52;12.40;99.90
66568;DHT22;53422;49.296;6.900;2023-03-20T13:49:32;12.40;99.90
66568;DHT22;53422;49.296;6.900;2023-03-20T13:55:05;12.50;99.90
66568;DHT22;53422;49.296;6.900;2023-03-20T14:00:39;12.40;99.90
66568;DHT22;53422;49.296;6.900;2023-03-20T14:05:54;12.40;99.90
66568;DHT22;53422;49.296;6.900;2023-03-20T14:13:51;12.50;99.90
66568;DHT22;53422;49.296;6.900;2023-03-20T14:16:19;12.50;99.90
66568;DHT22;53422;49.296;6.900;2023-03-20T14:18:47;12.50;99.90
66568;DHT22;53422;49.296;6.900;2023-03-20T14:21:22;12.50;99.90
66568;DHT22;53422;49.296;6.900;2023-03-20T14:23:50;12.60;99.90
66568;DHT22;53422;49.296;6.900;2023-03-20T14:26:34;12.60;99.90
66568;DHT22;53422;49.296;6.900;2023-03-20T14:29:20;12.50;98.90
66568;DHT22;53422;49.296;6.900;2023-03-20T14:31:49;12.60;97.30
66568;DHT22;53422;49.296;6.900;2023-03-20T14:34:21;12.60;98.80
66568;DHT22;53422;49.296;6.900;2023-03-20T14:37:00;12.60;99.90
66568;DHT22;53422;49.296;6.900;2023-03-20T14:39:47;12.60;99.90
66568;DHT22;53422;49.296;6.900;2023-03-20T14:45:12;12.60;99.70
66568;DHT22;53422;49.296;6.900;2023-03-20T14:50:24;12.60;99.90
66568;DHT22;53422;49.296;6.900;2023-03-20T15:01:02;12.70;99.90
66568;DHT22;53422;49.296;6.900;2023-03-20T15:03:29;12.70;99.90
66568;DHT22;53422;49.296;6.900;2023-03-20T15:05:58;12.70;99.90
66568;DHT22;53422;49.296;6.900;2023-03-20T15:08:32;12.70;96.10
66568;DHT22;53422;49.296;6.900;2023-03-20T15:11:04;12.70;97.40
66568;DHT22;53422;49.296;6.900;2023-03-20T15:13:34;12.60;99.90
66568;DHT22;53422;49.296;6.900;2023-03-20T15:16:08;12.60;98.50
66568;DHT22;53422;49.296;6.900;2023-03-20T15:18:35;12.60;98.00
66568;DHT22;53422;49.296;6.900;2023-03-20T15:21:02;12.60;99.90
66568;DHT22;53422;49.296;6.900;2023-03-20T15:23:28;12.60;99.90
66568;DHT22;53422;49.296;6.900;2023-03-20T15:25:53;12.60;98.50
66568;DHT22;53422;49.296;6.900;2023-03-20T15:28:26;12.60;97.70
66568;DHT22;53422;49.296;6.900;2023-03-20T15:30:55;12.50;95.80
66568;DHT22;53422;49.296;6.900;2023-03-20T15:33:31;12.50;95.90
66568;DHT22;53422;49.296;6.900;2023-03-20T15:35:57;12.50;99.90
66568;DHT22;53422;49.296;6.900;2023-03-20T15:38:29;12.50;99.70
66568;DHT22;53422;49.296;6.900;2023-03-20T15:40:57;12.50;99.30
66568;DHT22;53422;49.296;6.900;2023-03-20T15:43:24;12.50;98.30
66568;DHT22;53422;49.296;6.900;2023-03-20T15:45:51;12.50;96.30
66568;DHT22;53422;49.296;6.900;2023-03-20T15:48:21;12.50;99.90
66568;DHT22;53422;49.296;6.900;2023-03-20T15:50:56;12.40;99.90
66568;DHT22;53422;49.296;6.900;2023-03-20T15:53:33;12.50;99.20
66568;DHT22;53422;49.296;6.900;2023-03-20T15:56:22;12.50;99.90
66568;DHT22;53422;49.296;6.900;2023-03-20T15:58:50;12.40;99.90
66568;DHT22;53422;49.296;6.900;2023-03-20T16:01:21;12.30;99.70
66568;DHT22;53422;49.296;6.900;2023-03-20T16:03:48;12.30;96.30
66568;DHT22;53422;49.296;6.900;2023-03-20T16:06:20;12.40;95.70
66568;DHT22;53422;49.296;6.900;2023-03-20T16:08:59;12.30;99.70
66568;DHT22;53422;49.296;6.900;2023-03-20T16:11:34;12.30;99.90
66568;DHT22;53422;49.296;6.900;2023-03-20T16:14:00;12.30;99.50
66568;DHT22;53422;49.296;6.900;2023-03-20T16:16:26;12.30;96.00
66568;DHT22;53422;49.296;6.900;2023-03-20T16:18:54;12.30;99.50
66568;DHT22;53422;49.296;6.900;2023-03-20T16:21:27;12.30;97.80
66568;DHT22;53422;49.296;6.900;2023-03-20T16:23:56;12.20;99.30
66568;DHT22;53422;49.296;6.900;2023-03-20T16:26:24;12.20;98.10
66568;DHT22;53422;49.296;6.900;2023-03-20T16:28:54;12.20;98.20
66568;DHT22;53422;49.296;6.900;2023-03-20T16:31:28;12.20;99.90
66568;DHT22;53422;49.296;6.900;2023-03-20T16:34:00;12.20;94.70
66568;DHT22;53422;49.296;6.900;2023-03-20T16:36:32;12.20;99.90
66568;DHT22;53422;49.296;6.900;2023-03-20T16:41:37;12.10;95.60
66568;DHT22;53422;49.296;6.900;2023-03-20T16:44:06;12.10;96.10
66568;DHT22;53422;49.296;6.900;2023-03-20T16:46:33;12.00;99.90
66568;DHT22;53422;49.296;6.900;2023-03-20T16:51:50;12.00;99.90
66568;DHT22;53422;49.296;6.900;2023-03-20T16:54:19;11.90;96.10
66568;DHT22;53422;49.296;6.900;2023-03-20T16:56:51;11.90;97.60
66568;DHT22;53422;49.296;6.900;2023-03-20T16:59:18;11.90;96.10
66568;DHT22;53422;49.296;6.900;2023-03-20T17:01:46;11.90;99.90
66568;DHT22;53422;49.296;6.900;2023-03-20T17:04:27;11.80;99.20
66568;DHT22;53422;49.296;6.900;2023-03-20T17:09:34;11.80;99.30
66568;DHT22;53422;49.296;6.900;2023-03-20T17:14:30;11.80;99.90
66568;DHT22;53422;49.296;6.900;2023-03-20T17:16:56;11.70;97.50
66568;DHT22;53422;49.296;6.900;2023-03-20T17:19:23;11.70;96.10
66568;DHT22;53422;49.296;6.900;2023-03-20T17:21:50;11.60;96.10
66568;DHT22;53422;49.296;6.900;2023-03-20T17:24:16;11.60;96.90
66568;DHT22;53422;49.296;6.900;2023-03-20T17:26:44;11.60;98.80
66568;DHT22;53422;49.296;6.900;2023-03-20T17:29:11;11.60;97.40
66568;DHT22;53422;49.296;6.900;2023-03-20T17:31:37;11.60;96.70
66568;DHT22;53422;49.296;6.900;2023-03-20T17:34:03;11.60;94.60
66568;DHT22;53422;49.296;6.900;2023-03-20T17:36:30;11.50;99.90
66568;DHT22;53422;49.296;6.900;2023-03-20T17:38:57;11.50;96.90
66568;DHT22;53422;49.296;6.900;2023-03-20T17:41:24;11.50;97.10
66568;DHT22;53422;49.296;6.900;2023-03-20T17:43:50;11.40;96.40
66568;DHT22;53422;49.296;6.900;2023-03-20T17:46:26;11.50;99.90
66568;DHT22;53422;49.296;6.900;2023-03-20T17:48:57;11.40;99.20
66568;DHT22;53422;49.296;6.900;2023-03-20T17:51:23;11.40;99.60
66568;DHT22;53422;49.296;6.900;2023-03-20T17:53:49;11.40;99.90
66568;DHT22;53422;49.296;6.900;2023-03-20T17:56:20;11.30;98.80
66568;DHT22;53422;49.296;6.900;2023-03-20T17:58:46;11.30;99.90
66568;DHT22;53422;49.296;6.900;2023-03-20T18:01:13;11.30;99.90
66568;DHT22;53422;49.296;6.900;2023-03-20T18:03:39;11.30;99.90
66568;DHT22;53422;49.296;6.900;2023-03-20T18:06:05;11.20;99.90
66568;DHT22;53422;49.296;6.900;2023-03-20T18:08:31;11.20;99.90